Time;durP1;ratioP1;P1;durP2;ratioP2;P2;SDS_P1;SDS_P2;PMS_P1;PMS_P2;Temp;Humidity;BMP_temperature;BMP_pressure;BME280_temperature;BME280_humidity;BME280_pressure;Samples;Min_cycle;Max_cycle;Signal;HPM_P1;HPM_P2
2023/01/22 00:01:13;;;;;;;69.15;44.17;;;5.30;99.90;;;;;;5004380;28;20517;-72
2023/01/22 00:03:48;;;;;;;71.05;44.13;;;5.30;99.90;;;;;;5003087;28;20085;-73
2023/01/22 00:06:22;;;;;;;65.32;40.50;;;5.20;99.90;;;;;;5005790;28;20136;-71
2023/01/22 00:08:50;;;;;;;64.53;42.40;;;5.10;99.90;;;;;;5004209;28;20841;-71
2023/01/22 00:11:18;;;;;;;58.50;38.38;;;5.10;99.90;;;;;;5025439;28;20049;-70
2023/01/22 00:13:49;;;;;;;61.03;38.95;;;5.10;99.90;;;;;;5006746;28;20100;-71
2023/01/22 00:16:16;;;;;;;;;;;5.20;99.90;;;;;;5016805;28;20428;-70
2023/01/22 00:18:44;;;;;;;56.70;34.63;;;5.20;99.90;;;;;;4995418;28;19972;-72
2023/01/22 00:21:12;;;;;;;56.88;34.88;;;5.20;99.90;;;;;;5003052;28;20045;-71
2023/01/22 00:23:41;;;;;;;57.05;36.08;;;5.30;99.90;;;;;;4987926;28;20159;-72
2023/01/22 00:26:19;;;;;;;44.97;29.88;;;5.30;99.90;;;;;;4992925;28;20068;-71
2023/01/22 00:29:00;;;;;;;47.80;33.80;;;5.30;99.90;;;;;;4980317;28;20050;-70
2023/01/22 00:31:31;;;;;;;47.17;31.02;;;5.20;99.90;;;;;;5004535;28;20425;-70
2023/01/22 00:34:15;;;;;;;47.40;31.77;;;5.10;99.90;;;;;;4993520;28;20084;-69
2023/01/22 00:36:45;;;;;;;43.20;28.95;;;5.20;99.90;;;;;;5007309;28;20397;-71
2023/01/22 00:39:19;;;;;;;40.53;26.77;;;5.00;99.90;;;;;;5003487;28;20055;-70
2023/01/22 00:42:05;;;;;;;41.70;25.20;;;5.00;99.90;;;;;;4999569;28;20050;-69
2023/01/22 00:44:37;;;;;;;31.80;21.98;;;4.90;99.90;;;;;;4999757;28;20050;-71
2023/01/22 00:47:10;;;;;;;37.15;22.30;;;5.00;99.90;;;;;;4999269;28;20044;-70
2023/01/22 00:49:40;;;;;;;34.22;23.70;;;5.10;99.90;;;;;;4999759;28;20049;-70
2023/01/22 00:52:09;;;;;;;32.13;20.35;;;5.10;99.90;;;;;;4997426;28;20041;-71
2023/01/22 00:54:45;;;;;;;30.10;21.55;;;5.20;99.90;;;;;;5007970;28;20136;-70
2023/01/22 00:57:20;;;;;;;33.05;22.85;;;5.20;99.90;;;;;;4988274;28;20443;-70
2023/01/22 00:59:52;;;;;;;30.65;20.33;;;5.20;99.90;;;;;;4999937;28;20050;-72
2023/01/22 01:02:19;;;;;;;36.35;23.83;;;5.10;99.90;;;;;;4988125;28;20081;-73
2023/01/22 01:04:46;;;;;;;36.28;23.45;;;5.00;99.90;;;;;;5024246;28;20041;-74
2023/01/22 01:07:13;;;;;;;35.05;24.45;;;5.00;99.90;;;;;;5017427;28;20045;-72
2023/01/22 01:09:44;;;;;;;35.38;24.45;;;4.90;99.90;;;;;;5003473;28;20046;-71
2023/01/22 01:12:11;;;;;;;38.47;25.95;;;4.80;99.90;;;;;;4996956;28;20070;-71
2023/01/22 01:14:44;;;;;;;39.15;24.08;;;5.00;99.90;;;;;;5015684;23;20053;-72
2023/01/22 01:17:11;;;;;;;30.05;21.15;;;4.90;99.90;;;;;;4985492;28;20077;-72
2023/01/22 01:19:39;;;;;;;32.50;23.67;;;4.90;99.90;;;;;;5025157;23;20125;-72
2023/01/22 01:22:12;;;;;;;32.75;20.80;;;4.80;99.90;;;;;;5011129;28;20044;-71
2023/01/22 01:24:40;;;;;;;36.22;21.80;;;4.90;99.90;;;;;;5013939;23;20392;-73
2023/01/22 01:27:07;;;;;;;36.67;23.55;;;4.80;99.90;;;;;;5005874;28;20042;-72
2023/01/22 01:29:34;;;;;;;35.42;22.67;;;4.90;99.90;;;;;;5017846;28;20396;-71
2023/01/22 01:32:01;;;;;;;33.63;22.60;;;4.80;99.90;;;;;;5021745;28;20088;-73
2023/01/22 01:34:29;;;;;;;37.42;25.10;;;4.80;99.90;;;;;;5023546;28;20064;-71
2023/01/22 01:36:56;;;;;;;39.88;25.60;;;4.80;99.90;;;;;;5021537;28;20041;-72
2023/01/22 01:39:29;;;;;;;40.17;25.25;;;4.90;99.90;;;;;;5029294;23;20147;-71
2023/01/22 01:41:56;;;;;;;37.85;25.60;;;4.90;99.90;;;;;;5020878;28;20492;-72
2023/01/22 01:44:26;;;;;;;39.85;26.80;;;4.80;99.90;;;;;;5009628;28;20038;-71
2023/01/22 01:47:13;;;;;;;43.47;26.40;;;4.70;99.90;;;;;;5021936;28;20647;-73
2023/01/22 01:49:48;;;;;;;39.78;26.45;;;4.60;99.90;;;;;;5019973;28;20043;-71
2023/01/22 01:52:16;;;;;;;44.22;26.67;;;4.60;99.90;;;;;;5023252;28;20041;-71
2023/01/22 01:54:47;;;;;;;39.45;25.63;;;4.50;99.90;;;;;;5018848;28;21025;-71
2023/01/22 01:57:21;;;;;;;41.25;25.45;;;4.50;99.90;;;;;;5026202;28;20044;-71
2023/01/22 01:59:50;;;;;;;38.03;25.40;;;4.60;99.90;;;;;;5014492;28;20525;-70
2023/01/22 02:02:19;;;;;;;40.17;26.00;;;4.60;99.90;;;;;;5019104;28;20034;-73
2023/01/22 02:04:48;;;;;;;43.20;27.27;;;4.70;99.90;;;;;;5013319;28;20132;-72
2023/01/22 02:07:19;;;;;;;50.78;32.17;;;4.60;99.90;;;;;;5016770;28;20085;-73
2023/01/22 02:09:46;;;;;;;55.92;33.75;;;4.50;99.90;;;;;;5016127;28;20037;-71
2023/01/22 02:12:20;;;;;;;46.83;31.88;;;4.40;99.90;;;;;;5016819;28;20054;-73
2023/01/22 02:14:48;;;;;;;57.05;35.00;;;4.30;99.90;;;;;;5005326;28;20041;-73
2023/01/22 02:17:20;;;;;;;50.25;31.85;;;4.20;99.90;;;;;;5002860;28;20049;-71
2023/01/22 02:19:47;;;;;;;46.17;29.00;;;4.20;99.90;;;;;;4984080;28;20099;-72
2023/01/22 02:22:28;;;;;;;47.60;29.13;;;4.20;99.90;;;;;;4990922;28;20038;-71
2023/01/22 02:25:02;;;;;;;38.88;27.10;;;4.10;99.90;;;;;;5004705;28;20054;-72
2023/01/22 02:27:30;;;;;;;42.85;28.05;;;4.10;99.90;;;;;;4992060;28;20058;-72
2023/01/22 02:30:01;;;;;;;35.65;26.02;;;4.10;99.90;;;;;;4988940;28;20141;-72
2023/01/22 02:32:30;;;;;;;41.00;25.88;;;3.90;99.90;;;;;;4988374;28;20038;-73
2023/01/22 02:34:58;;;;;;;38.15;26.05;;;4.00;99.90;;;;;;5005187;28;20503;-73
2023/01/22 02:37:25;;;;;;;42.90;27.42;;;3.90;99.90;;;;;;4992245;28;20046;-72
2023/01/22 02:39:52;;;;;;;38.78;25.92;;;3.80;99.90;;;;;;4993886;28;20637;-72
2023/01/22 02:42:20;;;;;;;149.18;79.78;;;3.80;99.90;;;;;;4997987;28;20072;-71
2023/01/22 02:44:51;;;;;;;47.05;32.72;;;4.00;99.90;;;;;;4997845;28;20485;-73
2023/01/22 02:47:22;;;;;;;41.92;28.88;;;4.10;99.90;;;;;;4998085;28;20089;-72
2023/01/22 02:49:49;;;;;;;39.03;26.20;;;3.90;99.90;;;;;;5011042;28;20402;-70
2023/01/22 02:52:16;;;;;;;40.90;25.35;;;3.90;99.90;;;;;;4998271;28;20042;-71
2023/01/22 02:54:47;;;;;;;36.75;25.27;;;4.00;99.90;;;;;;5004256;28;20046;-70
2023/01/22 02:57:16;;;;;;;37.67;26.60;;;4.00;99.90;;;;;;5004769;28;20412;-71
2023/01/22 02:59:44;;;;;;;36.13;25.63;;;3.80;99.90;;;;;;4997911;28;20046;-72
2023/01/22 03:02:11;;;;;;;35.97;24.08;;;3.80;99.90;;;;;;5004205;28;20042;-71
2023/01/22 03:04:39;;;;;;;32.03;23.63;;;3.80;99.90;;;;;;5021335;28;20045;-71
2023/01/22 03:07:06;;;;;;;35.33;22.52;;;3.80;99.90;;;;;;5034967;28;20073;-72
2023/01/22 03:09:33;;;;;;;36.10;23.85;;;3.80;99.90;;;;;;5007516;28;20049;-72
2023/01/22 03:12:00;;;;;;;37.42;24.33;;;3.90;99.90;;;;;;5021022;28;20045;-69
2023/01/22 03:22:48;;;;;;;30.67;20.40;;;4.10;99.90;;;;;;5034210;28;20419;-72
2023/01/22 03:25:15;;;;;;;35.53;23.92;;;4.40;99.90;;;;;;5017471;28;20038;-71
2023/01/22 03:28:07;;;;;;;32.83;22.38;;;4.00;99.90;;;;;;5013753;28;20036;-72
2023/01/22 03:30:30;;;;;;;33.35;22.23;;;4.10;99.90;;;;;;5012914;28;20169;-69
2023/01/22 03:32:57;;;;;;;30.67;22.02;;;4.00;99.90;;;;;;5026032;28;20408;-70
2023/01/22 03:35:25;;;;;;;37.25;25.35;;;3.90;99.90;;;;;;5015048;28;20124;-72
2023/01/22 03:37:52;;;;;;;37.30;24.88;;;3.90;99.90;;;;;;5013206;28;20547;-72
2023/01/22 03:40:20;;;;;;;34.92;24.13;;;3.70;99.90;;;;;;5014839;28;20092;-72
2023/01/22 03:42:47;;;;;;;38.30;25.52;;;3.70;99.90;;;;;;5009986;28;20500;-70
2023/01/22 03:45:14;;;;;;;41.80;27.05;;;3.50;99.90;;;;;;5013426;28;20486;-71
2023/01/22 03:47:41;;;;;;;39.33;26.13;;;3.30;99.90;;;;;;5007114;28;20050;-72
2023/01/22 03:50:09;;;;;;;42.83;27.77;;;3.30;99.90;;;;;;5014254;28;20401;-72
2023/01/22 03:52:36;;;;;;;39.67;26.73;;;3.30;99.90;;;;;;5012874;28;20050;-72
2023/01/22 03:55:04;;;;;;;37.38;25.40;;;3.40;99.90;;;;;;5013958;28;20049;-71
2023/01/22 03:57:33;;;;;;;38.58;25.80;;;3.50;99.90;;;;;;5014125;28;20038;-72
2023/01/22 04:00:06;;;;;;;40.85;27.27;;;3.50;99.90;;;;;;5022841;28;20038;-72
2023/01/22 04:02:42;;;;;;;36.05;27.02;;;3.30;99.90;;;;;;5019692;28;20132;-72
2023/01/22 04:05:10;;;;;;;36.13;25.52;;;2.90;99.90;;;;;;5013209;28;20381;-72
2023/01/22 04:07:38;;;;;;;34.42;24.65;;;2.50;99.90;;;;;;5014206;28;20045;-72
2023/01/22 04:10:05;;;;;;;37.75;25.33;;;2.70;99.90;;;;;;4993200;28;20560;-70
2023/01/22 04:12:33;;;;;;;33.47;23.70;;;2.80;99.90;;;;;;5002744;28;20065;-70
2023/01/22 04:15:00;;;;;;;55.58;24.80;;;2.70;99.90;;;;;;4989586;28;20073;-72
2023/01/22 04:17:30;;;;;;;35.88;22.23;;;2.40;99.90;;;;;;5012256;28;20057;-72
2023/01/22 04:19:57;;;;;;;28.83;22.58;;;2.30;99.90;;;;;;4990595;28;20038;-73
2023/01/22 04:22:25;;;;;;;27.63;21.30;;;2.50;99.90;;;;;;4996546;28;20045;-72
2023/01/22 04:24:55;;;;;;;32.85;22.45;;;2.60;99.90;;;;;;5012575;28;20108;-74
2023/01/22 04:27:22;;;;;;;28.63;20.20;;;2.70;99.90;;;;;;4996375;28;20050;-73
2023/01/22 04:29:50;;;;;;;27.48;19.15;;;2.70;99.90;;;;;;4996030;28;20054;-71
2023/01/22 04:32:17;;;;;;;29.25;21.25;;;2.70;99.90;;;;;;4996564;28;20108;-71
2023/01/22 04:34:46;;;;;;;25.10;18.70;;;2.60;99.90;;;;;;4996224;28;20509;-73
2023/01/22 04:37:13;;;;;;;24.35;16.98;;;2.40;99.90;;;;;;4995955;28;20049;-73
2023/01/22 04:39:40;;;;;;;28.17;19.75;;;2.50;99.90;;;;;;5011973;28;20187;-73
2023/01/22 04:42:10;;;;;;;27.98;21.02;;;2.50;99.90;;;;;;5011821;28;20057;-71
2023/01/22 04:44:40;;;;;;;29.45;21.92;;;2.50;99.90;;;;;;5011832;28;20037;-73
2023/01/22 04:47:07;;;;;;;28.52;22.10;;;2.60;99.90;;;;;;5004018;28;20049;-74
2023/01/22 04:49:35;;;;;;;30.52;21.65;;;2.60;99.90;;;;;;5008049;28;20117;-74
2023/01/22 04:52:03;;;;;;;28.95;22.48;;;2.60;99.90;;;;;;5012223;28;20050;-74
2023/01/22 04:54:30;;;;;;;31.55;22.80;;;2.60;99.90;;;;;;4999062;28;20518;-71
2023/01/22 04:56:58;;;;;;;33.83;24.05;;;2.50;99.90;;;;;;5005222;28;20077;-73
2023/01/22 04:59:25;;;;;;;31.27;24.15;;;2.40;99.90;;;;;;5013643;28;20065;-73
2023/01/22 05:01:57;;;;;;;32.72;23.45;;;2.50;99.90;;;;;;5003898;28;20042;-71
2023/01/22 05:04:24;;;;;;;33.50;23.50;;;2.60;99.90;;;;;;4995844;28;20061;-73
2023/01/22 05:06:51;;;;;;;37.75;24.40;;;2.70;99.90;;;;;;5030477;23;20052;-72
2023/01/22 05:09:19;;;;;;;32.65;22.60;;;2.70;99.90;;;;;;5032972;28;20038;-72
2023/01/22 05:11:46;;;;;;;33.45;23.67;;;2.60;99.90;;;;;;5027624;28;20037;-71
2023/01/22 05:14:14;;;;;;;39.33;23.92;;;2.60;99.90;;;;;;5024860;28;20128;-73
2023/01/22 05:16:42;;;;;;;32.25;22.33;;;2.50;99.90;;;;;;5012699;28;20052;-72
2023/01/22 05:19:09;;;;;;;34.88;22.75;;;2.40;99.90;;;;;;4975111;28;20049;-73
2023/01/22 05:21:37;;;;;;;32.03;22.30;;;2.40;99.90;;;;;;5006470;28;20038;-72
2023/01/22 05:24:05;;;;;;;30.27;21.40;;;2.40;99.90;;;;;;4998538;28;20050;-71
2023/01/22 05:26:32;;;;;;;33.90;21.45;;;2.50;99.90;;;;;;5011235;28;20100;-72
2023/01/22 05:29:00;;;;;;;35.20;23.83;;;2.20;99.90;;;;;;5012676;28;20038;-72
2023/01/22 05:31:27;;;;;;;32.03;22.23;;;1.90;99.90;;;;;;5013253;28;20041;-69
2023/01/22 05:33:54;;;;;;;39.78;20.98;;;2.00;99.90;;;;;;5003448;28;20494;-72
2023/01/22 05:36:22;;;;;;;32.13;21.25;;;1.90;99.90;;;;;;5007326;28;20042;-72
2023/01/22 05:38:49;;;;;;;32.28;21.45;;;1.70;99.90;;;;;;5011294;28;20045;-72
2023/01/22 05:41:16;;;;;;;43.78;21.67;;;1.50;99.90;;;;;;5010942;28;20433;-71
2023/01/22 05:43:44;;;;;;;31.67;20.25;;;1.50;99.90;;;;;;5012100;28;20068;-71
2023/01/22 05:46:11;;;;;;;35.42;20.52;;;1.60;99.90;;;;;;5010873;28;20072;-72
2023/01/22 05:48:38;;;;;;;34.20;21.40;;;1.70;99.90;;;;;;5012340;28;20543;-72
2023/01/22 05:51:09;;;;;;;42.35;20.65;;;1.60;99.90;;;;;;5012212;28;20054;-71
2023/01/22 05:53:37;;;;;;;43.28;21.30;;;1.70;99.90;;;;;;5012004;28;20552;-71
2023/01/22 05:56:05;;;;;;;60.92;22.95;;;1.70;99.90;;;;;;5011996;28;20482;-73
2023/01/22 05:58:33;;;;;;;35.17;23.15;;;1.70;99.90;;;;;;5011937;28;20048;-71
2023/01/22 06:01:00;;;;;;;34.80;21.63;;;1.60;99.90;;;;;;5007825;28;20084;-72
2023/01/22 06:03:27;;;;;;;45.20;22.90;;;1.70;99.90;;;;;;5011657;28;20046;-71
2023/01/22 06:06:00;;;;;;;37.78;20.67;;;1.90;99.90;;;;;;5012008;28;20046;-72
2023/01/22 06:08:28;;;;;;;39.00;21.45;;;1.80;99.90;;;;;;5011613;28;20073;-72
2023/01/22 06:11:07;;;;;;;31.92;22.45;;;2.10;99.90;;;;;;5024978;28;20152;-72
2023/01/22 06:13:35;;;;;;;31.15;20.88;;;2.40;99.90;;;;;;5035702;22;20378;-72
2023/01/22 06:16:03;;;;;;;30.70;21.83;;;2.60;99.90;;;;;;5029804;28;20045;-72
2023/01/22 06:18:34;;;;;;;38.80;21.75;;;2.70;99.90;;;;;;5032199;28;20423;-72
2023/01/22 06:21:06;;;;;;;28.00;21.23;;;2.60;99.90;;;;;;5022331;28;20046;-71
2023/01/22 06:23:33;;;;;;;42.60;20.92;;;2.60;99.90;;;;;;5008244;28;20040;-72
2023/01/22 06:26:02;;;;;;;28.25;20.13;;;2.50;99.90;;;;;;5031720;28;20068;-73
2023/01/22 06:28:30;;;;;;;29.70;21.20;;;2.50;99.90;;;;;;5034244;28;20044;-72
2023/01/22 06:31:04;;;;;;;28.52;20.27;;;2.60;99.90;;;;;;5041519;28;20037;-71
2023/01/22 06:33:35;;;;;;;29.20;20.75;;;2.90;99.90;;;;;;5010562;28;20038;-71
2023/01/22 06:36:04;;;;;;;27.80;20.52;;;3.00;99.90;;;;;;5023491;28;20045;-71
2023/01/22 06:38:32;;;;;;;33.40;20.80;;;3.00;99.90;;;;;;5050506;28;20047;-72
2023/01/22 06:41:00;;;;;;;33.00;20.27;;;3.10;99.90;;;;;;5038678;28;20049;-71
2023/01/22 06:43:27;;;;;;;30.30;20.90;;;3.00;99.90;;;;;;5029776;28;20042;-73
2023/01/22 06:45:55;;;;;;;27.48;19.80;;;3.10;99.90;;;;;;5036691;22;20136;-73
2023/01/22 06:48:34;;;;;;;34.13;19.33;;;3.20;99.90;;;;;;5031246;28;20040;-69
2023/01/22 06:51:34;;;;;;;41.67;20.45;;;3.10;99.90;;;;;;5031191;28;20498;-69
2023/01/22 06:54:03;;;;;;;52.55;19.65;;;2.60;99.90;;;;;;5027058;28;20068;-72
2023/01/22 06:56:31;;;;;;;46.72;22.02;;;2.70;99.90;;;;;;5037382;28;20065;-72
2023/01/22 06:58:58;;;;;;;29.58;19.63;;;2.80;99.90;;;;;;5033518;28;20041;-71
2023/01/22 07:01:26;;;;;;;40.50;20.23;;;2.90;99.90;;;;;;5020549;28;20029;-73
2023/01/22 07:03:53;;;;;;;28.30;19.55;;;3.00;99.90;;;;;;5031066;28;20411;-72
2023/01/22 07:06:24;;;;;;;25.60;18.52;;;3.10;99.90;;;;;;5031073;28;20040;-72
2023/01/22 07:08:52;;;;;;;;;;;3.30;99.90;;;;;;5026234;28;20046;-72
2023/01/22 07:11:20;;;;;;;27.02;17.15;;;3.50;99.90;;;;;;4996303;28;19917;-72
2023/01/22 07:14:17;;;;;;;26.67;18.65;;;3.30;99.90;;;;;;5005305;28;20042;-71
2023/01/22 07:17:02;;;;;;;24.73;18.40;;;3.60;99.90;;;;;;4996658;28;20460;-71
2023/01/22 07:19:30;;;;;;;26.42;19.45;;;3.60;99.90;;;;;;5010279;28;20480;-72
2023/01/22 07:21:59;;;;;;;25.45;18.90;;;3.50;99.90;;;;;;5025676;28;20704;-71
2023/01/22 07:24:27;;;;;;;26.60;19.45;;;3.70;99.90;;;;;;5004679;28;20099;-72
2023/01/22 07:26:54;;;;;;;24.40;18.08;;;3.90;99.90;;;;;;5028367;28;20069;-72
2023/01/22 07:29:22;;;;;;;29.00;20.35;;;3.90;99.90;;;;;;5017529;28;20056;-72
2023/01/22 07:31:49;;;;;;;25.35;18.83;;;3.80;99.90;;;;;;5020831;28;20049;-73
2023/01/22 07:34:16;;;;;;;29.20;18.83;;;4.00;99.90;;;;;;5007127;28;20050;-72
2023/01/22 07:36:49;;;;;;;26.25;19.48;;;4.10;99.90;;;;;;4994199;28;20375;-71
2023/01/22 07:39:16;;;;;;;26.05;18.92;;;4.10;99.90;;;;;;4989018;28;20501;-70
2023/01/22 07:41:45;;;;;;;27.38;20.08;;;4.20;99.90;;;;;;5019318;28;20449;-71
2023/01/22 07:44:15;;;;;;;29.13;21.73;;;4.10;99.90;;;;;;5016633;28;20481;-72
2023/01/22 07:46:42;;;;;;;27.95;20.85;;;3.80;99.90;;;;;;5034024;28;20048;-72
2023/01/22 07:49:10;;;;;;;35.40;22.15;;;3.60;99.90;;;;;;5016978;28;20038;-73
2023/01/22 07:51:52;;;;;;;29.23;21.30;;;3.90;99.90;;;;;;5014014;28;20042;-72
2023/01/22 07:54:20;;;;;;;28.75;21.05;;;4.30;99.90;;;;;;5026251;28;20072;-72
2023/01/22 07:56:47;;;;;;;27.83;20.63;;;4.50;99.90;;;;;;5012808;28;20042;-72
2023/01/22 07:59:15;;;;;;;30.35;22.00;;;4.60;99.90;;;;;;5012720;28;20054;-73
2023/01/22 08:01:52;;;;;;;32.75;23.60;;;4.70;99.90;;;;;;5012535;28;20037;-71
2023/01/22 08:04:23;;;;;;;32.58;21.58;;;4.60;99.90;;;;;;5015489;28;20045;-70
2023/01/22 08:06:50;;;;;;;;;;;4.70;99.90;;;;;;5013550;28;20402;-71
2023/01/22 08:09:26;;;;;;;30.90;21.70;;;4.70;99.90;;;;;;5001434;28;20000;-71
2023/01/22 08:11:53;;;;;;;29.05;21.55;;;4.50;99.90;;;;;;5019822;28;20042;-71
2023/01/22 08:14:27;;;;;;;31.23;21.40;;;4.60;99.90;;;;;;5013883;28;20041;-71
2023/01/22 08:17:00;;;;;;;29.25;22.02;;;4.60;99.90;;;;;;5014826;28;20042;-73
2023/01/22 08:19:28;;;;;;;36.95;26.15;;;4.50;99.90;;;;;;5007842;28;20061;-72
2023/01/22 08:21:55;;;;;;;40.70;28.33;;;4.60;99.90;;;;;;5016651;28;20453;-70
2023/01/22 08:24:23;;;;;;;47.50;33.58;;;4.70;99.90;;;;;;5013721;28;20041;-72
2023/01/22 08:26:51;;;;;;;54.38;37.22;;;4.60;99.90;;;;;;5009876;28;20042;-75
2023/01/22 08:29:18;;;;;;;63.90;42.58;;;4.60;99.90;;;;;;5003071;28;20128;-71
2023/01/22 08:31:46;;;;;;;71.57;44.08;;;4.90;99.90;;;;;;5005416;28;20046;-71
2023/01/22 08:34:13;;;;;;;56.95;38.92;;;5.00;99.90;;;;;;5000724;28;20121;-72
2023/01/22 08:36:40;;;;;;;61.47;41.75;;;5.20;99.90;;;;;;5002434;28;20037;-70
2023/01/22 08:39:09;;;;;;;57.08;40.78;;;5.30;99.90;;;;;;5003077;28;20074;-69
2023/01/22 08:41:37;;;;;;;60.35;39.78;;;5.30;99.90;;;;;;5001977;28;20366;-70
2023/01/22 08:44:04;;;;;;;63.95;42.17;;;5.50;99.90;;;;;;4998249;28;20378;-69
2023/01/22 08:46:39;;;;;;;64.35;41.67;;;5.70;99.90;;;;;;5002499;28;20056;-69
2023/01/22 08:49:07;;;;;;;65.10;43.75;;;6.10;99.90;;;;;;5021947;22;20464;-69
2023/01/22 08:51:34;;;;;;;70.88;44.60;;;6.30;99.90;;;;;;5018851;28;20477;-70
2023/01/22 08:54:01;;;;;;;71.55;45.70;;;6.50;99.90;;;;;;5000414;28;20060;-71
2023/01/22 08:56:29;;;;;;;60.83;41.72;;;6.50;99.90;;;;;;4996177;28;20042;-71
2023/01/22 08:58:58;;;;;;;64.95;42.47;;;6.60;99.90;;;;;;5016301;28;20124;-70
2023/01/22 09:01:26;;;;;;;53.72;38.80;;;6.80;99.90;;;;;;5016011;28;20045;-70
2023/01/22 09:03:54;;;;;;;62.40;40.30;;;6.90;99.90;;;;;;5019275;28;20066;-69
2023/01/22 09:06:22;;;;;;;58.90;41.13;;;7.00;99.90;;;;;;5020477;28;20053;-71
2023/01/22 09:08:50;;;;;;;62.35;42.10;;;7.00;99.90;;;;;;5013427;28;20050;-70
2023/01/22 09:11:17;;;;;;;58.83;39.58;;;6.90;99.90;;;;;;5008883;28;20037;-74
2023/01/22 09:13:45;;;;;;;54.85;39.00;;;6.90;99.90;;;;;;5015429;28;20041;-69
2023/01/22 09:16:12;;;;;;;52.35;37.35;;;6.80;99.90;;;;;;4998012;28;20385;-70
2023/01/22 09:18:42;;;;;;;54.08;37.90;;;6.60;99.90;;;;;;5007245;28;20057;-70
2023/01/22 09:21:09;;;;;;;57.60;37.40;;;6.50;99.90;;;;;;4997289;28;20099;-76
2023/01/22 09:23:37;;;;;;;57.45;37.90;;;6.60;99.90;;;;;;5021781;28;20116;-71
2023/01/22 09:26:06;;;;;;;48.92;34.90;;;7.20;99.90;;;;;;5011615;28;20123;-74
2023/01/22 09:28:36;;;;;;;51.03;35.03;;;7.60;99.90;;;;;;5003788;28;20048;-71
2023/01/22 09:31:04;;;;;;;48.15;35.78;;;7.40;99.90;;;;;;5003652;28;20040;-74
2023/01/22 09:33:31;;;;;;;50.90;36.15;;;7.30;99.90;;;;;;5001722;28;20069;-73
2023/01/22 09:36:12;;;;;;;47.28;35.85;;;7.30;99.90;;;;;;5002491;28;20033;-71
2023/01/22 09:38:43;;;;;;;52.38;36.08;;;7.00;99.90;;;;;;4998542;28;20500;-71
2023/01/22 09:41:30;;;;;;;47.95;35.10;;;7.10;99.90;;;;;;5004763;28;20119;-73
2023/01/22 09:44:30;;;;;;;47.58;35.78;;;7.70;99.90;;;;;;5021935;28;20049;-72
2023/01/22 09:47:13;;;;;;;50.42;37.03;;;8.10;99.90;;;;;;5004503;28;20030;-70
2023/01/22 09:50:03;;;;;;;49.00;35.97;;;8.30;99.90;;;;;;4999232;28;20045;-69
2023/01/22 09:52:37;;;;;;;48.33;36.08;;;8.30;99.90;;;;;;5014615;28;20048;-74
2023/01/22 09:55:15;;;;;;;51.22;34.65;;;8.30;99.90;;;;;;4999815;28;20046;-72
2023/01/22 09:57:54;;;;;;;51.13;34.60;;;8.30;99.90;;;;;;5029665;28;20442;-75
2023/01/22 10:00:48;;;;;;;51.47;34.92;;;8.20;99.90;;;;;;5017556;28;20046;-72
2023/01/22 10:03:42;;;;;;;46.13;34.05;;;8.50;99.90;;;;;;5002067;28;20073;-74
2023/01/22 10:06:20;;;;;;;46.90;33.83;;;9.10;99.90;;;;;;4999238;28;20049;-70
2023/01/22 10:09:19;;;;;;;46.17;32.67;;;9.20;99.90;;;;;;5003513;28;20126;-72
2023/01/22 10:11:52;;;;;;;40.67;31.67;;;9.30;99.90;;;;;;5004890;28;20057;-73
2023/01/22 10:14:28;;;;;;;43.55;32.40;;;9.70;99.90;;;;;;5016205;28;20030;-71
2023/01/22 10:17:00;;;;;;;51.80;37.08;;;10.10;99.90;;;;;;5003175;28;20045;-72
2023/01/22 10:19:51;;;;;;;50.10;36.80;;;10.50;99.90;;;;;;5007736;28;20497;-71
2023/01/22 10:22:24;;;;;;;42.45;31.17;;;10.80;99.90;;;;;;5015025;28;20435;-73
2023/01/22 10:24:53;;;;;;;37.38;29.00;;;10.80;99.90;;;;;;5004329;28;20080;-71
2023/01/22 10:27:33;;;;;;;37.22;27.73;;;11.00;99.90;;;;;;5022676;28;20030;-71
2023/01/22 10:30:21;;;;;;;35.13;25.63;;;11.20;99.90;;;;;;5000668;28;20133;-72
2023/01/22 10:33:17;;;;;;;38.78;28.13;;;11.00;99.90;;;;;;5012156;28;20050;-71
2023/01/22 10:35:51;;;;;;;74.28;46.38;;;11.10;99.90;;;;;;4997706;28;20073;-71
2023/01/22 10:38:25;;;;;;;45.50;33.58;;;11.50;99.90;;;;;;5006987;28;20414;-72
2023/01/22 10:40:58;;;;;;;36.50;27.13;;;11.90;99.90;;;;;;5001422;28;20419;-77
2023/01/22 10:43:38;;;;;;;37.50;27.20;;;12.00;99.90;;;;;;5001915;28;20485;-75
2023/01/22 10:46:21;;;;;;;38.28;29.95;;;12.40;99.90;;;;;;5017875;28;20050;-72
2023/01/22 10:49:04;;;;;;;40.03;29.80;;;12.60;99.90;;;;;;5004481;28;20132;-80
2023/01/22 10:52:14;;;;;;;39.50;28.88;;;12.60;99.90;;;;;;5021925;28;20069;-73
2023/01/22 10:55:31;;;;;;;44.45;29.98;;;12.40;99.90;;;;;;4984783;28;20674;-75
2023/01/22 10:58:06;;;;;;;44.35;30.85;;;12.50;99.90;;;;;;5011279;28;20069;-77
2023/01/22 11:01:05;;;;;;;39.63;28.85;;;12.70;99.90;;;;;;5017492;28;20141;-73
2023/01/22 11:03:39;;;;;;;35.00;27.27;;;13.00;99.90;;;;;;5009796;28;20037;-71
2023/01/22 11:06:38;;;;;;;35.78;25.95;;;13.00;99.90;;;;;;5011734;28;20114;-72
2023/01/22 11:10:07;;;;;;;33.67;26.70;;;13.40;99.90;;;;;;5005235;28;20095;-75
2023/01/22 11:12:45;;;;;;;34.75;28.90;;;13.60;99.90;;;;;;4992343;28;20057;-75
2023/01/22 11:15:56;;;;;;;32.80;25.60;;;14.00;99.20;;;;;;4995217;28;20385;-75
2023/01/22 11:18:54;;;;;;;33.47;25.77;;;14.60;97.00;;;;;;5007878;28;20452;-71
2023/01/22 11:21:29;;;;;;;33.00;24.83;;;13.90;97.40;;;;;;5009412;28;20041;-74
2023/01/22 11:24:23;;;;;;;35.65;27.17;;;13.50;98.50;;;;;;5010514;28;20046;-73
2023/01/22 11:27:28;;;;;;;37.83;25.80;;;13.10;99.80;;;;;;5007529;28;20056;-73
2023/01/22 11:30:43;;;;;;;39.08;24.27;;;13.50;99.00;;;;;;5005786;28;20049;-72
2023/01/22 11:33:27;;;;;;;33.50;23.50;;;13.70;98.50;;;;;;5010406;28;20127;-75
2023/01/22 11:36:21;;;;;;;29.67;22.75;;;13.90;97.60;;;;;;5018695;28;20397;-70
2023/01/22 11:39:08;;;;;;;29.55;21.20;;;14.20;96.50;;;;;;5003091;28;20041;-72
2023/01/22 11:42:08;;;;;;;32.10;22.00;;;14.30;96.10;;;;;;5008984;28;20133;-73
2023/01/22 11:45:02;;;;;;;28.15;20.38;;;14.70;95.40;;;;;;5019464;28;20441;-70
2023/01/22 11:47:38;;;;;;;27.00;19.17;;;14.90;94.10;;;;;;5014870;28;20069;-74
2023/01/22 11:50:35;;;;;;;48.92;27.80;;;15.10;93.50;;;;;;5003727;28;20045;-71
2023/01/22 11:53:09;;;;;;;145.10;88.45;;;15.60;94.10;;;;;;5031115;28;20053;-73
2023/01/22 11:56:11;;;;;;;119.20;74.43;;;15.90;92.90;;;;;;5005539;28;20042;-74
2023/01/22 11:59:15;;;;;;;65.35;38.50;;;16.30;92.20;;;;;;4997279;28;20069;-70
2023/01/22 12:01:51;;;;;;;43.53;26.92;;;16.50;91.30;;;;;;5006505;28;20058;-75
2023/01/22 12:04:42;;;;;;;36.38;22.83;;;16.70;90.50;;;;;;5004760;28;20068;-77
2023/01/22 12:07:27;;;;;;;34.45;21.58;;;16.70;89.90;;;;;;5025437;28;20041;-70
2023/01/22 12:10:12;;;;;;;39.65;22.83;;;16.90;84.20;;;;;;5003678;28;20049;-72
2023/01/22 12:12:51;;;;;;;26.10;16.52;;;17.10;87.40;;;;;;5012323;28;20034;-72
2023/01/22 12:15:32;;;;;;;26.02;17.75;;;17.30;82.30;;;;;;5020404;28;20042;-71
2023/01/22 12:18:22;;;;;;;29.00;16.65;;;17.20;83.50;;;;;;5017103;28;20042;-72
2023/01/22 12:21:20;;;;;;;27.45;14.82;;;17.50;79.40;;;;;;5018236;28;20080;-72
2023/01/22 12:23:58;;;;;;;21.20;13.85;;;17.20;77.50;;;;;;4999223;28;20112;-72
2023/01/22 12:26:51;;;;;;;22.25;14.50;;;17.00;78.90;;;;;;5021580;28;20404;-69
2023/01/22 12:29:24;;;;;;;20.25;11.95;;;17.80;77.70;;;;;;4999640;28;20081;-71
2023/01/22 12:32:03;;;;;;;23.95;13.68;;;17.70;73.90;;;;;;5026534;28;20045;-71
2023/01/22 12:34:38;;;;;;;20.77;12.90;;;18.00;74.00;;;;;;5010612;28;20053;-72
2023/01/22 12:37:09;;;;;;;21.15;13.57;;;18.40;73.00;;;;;;5035675;28;20051;-70
2023/01/22 12:40:41;;;;;;;18.20;12.18;;;18.20;70.50;;;;;;5038326;28;20045;-71
2023/01/22 12:43:11;;;;;;;16.77;12.00;;;18.50;71.80;;;;;;4957236;28;20134;-72
2023/01/22 12:45:57;;;;;;;17.95;12.02;;;18.70;70.60;;;;;;4942992;28;20039;-69
2023/01/22 12:48:43;;;;;;;18.45;13.30;;;18.80;68.90;;;;;;4978907;28;20394;-69
2023/01/22 12:51:40;;;;;;;50.67;35.85;;;18.30;69.20;;;;;;5011017;28;20041;-71
2023/01/22 12:54:35;;;;;;;26.77;16.45;;;18.30;67.10;;;;;;5021120;28;20062;-69
2023/01/22 12:58:00;;;;;;;17.63;11.27;;;19.10;67.30;;;;;;5017140;28;20363;-70
2023/01/22 13:00:37;;;;;;;16.90;12.95;;;19.70;66.10;;;;;;5021995;28;20423;-69
2023/01/22 13:03:27;;;;;;;18.80;11.75;;;20.00;64.30;;;;;;5024859;28;20140;-68
2023/01/22 13:06:01;;;;;;;14.45;10.70;;;20.30;63.80;;;;;;5008641;28;20049;-70
2023/01/22 13:08:41;;;;;;;16.55;10.50;;;21.00;62.20;;;;;;5004513;28;20068;-72
2023/01/22 13:11:13;;;;;;;16.50;10.00;;;23.40;56.50;;;;;;5013671;28;20048;-72
2023/01/22 13:14:26;;;;;;;16.48;11.00;;;26.30;51.40;;;;;;5007027;28;20056;-72
2023/01/22 13:17:04;;;;;;;14.85;9.43;;;28.40;48.90;;;;;;5031137;28;20057;-71
2023/01/22 13:19:40;;;;;;;11.63;7.28;;;28.20;47.60;;;;;;5016817;28;20042;-69